Waterloo, IA (50701)

11:43 PM CST on February 12, 2016 (GMT -0600)
Byrnes Golf Course | | Change Station
CLOSE
Current Station
Personal Weather Station
Location: Waterloo, IA
Elevation: 925 ft
Nearby Weather Stations
Active Advisory: Wind Chill Advisory

Elev 925 ft 42.48 °N, 92.37 °W | Updated 8 minutes ago

Mostly Cloudy
Mostly Cloudy
2.1 °F
Feels Like 2 °F
N
2.2
Wind Variable Wind from WNW

Today
High -- | Low -- °F
--% Chance of Precip.
Yesterday
High -- | Low -- °F
Precip. -- in
Pressure 30.66 in
Visibility 10.0 miles
Clouds Clear
Windchill 2 °F
Dew Point -6 °F
Humidity 69%
Rainfall 0.00 in
Snow Depth Not available.
7:10 AM 5:37 PM
Waxing Crescent, 27% visible
METAR KALO 130454Z AUTO 28004KT 10SM CLR M17/M22 A3059 RMK AO2 SLP380 T11671217
Pressure 30.66 in
Visibility 10.0 miles
Clouds Clear
Windchill 2 °F
Dew Point -6 °F
Humidity 69%
Rainfall 0.00 in
Snow Depth Not available.
7:10 AM 5:37 PM
Waxing Crescent, 27% visible
METAR KALO 130454Z AUTO 28004KT 10SM CLR M17/M22 A3059 RMK AO2 SLP380 T11671217

10-Day Weather Forecast

Almanac

Astronomy

Feb. 12, 2016 Rise Set
Actual Time
Civil Twilight
Nautical Twilight
Astronomical Twilight
Moon
Length of Visible Light
Length of Day
Tomorrow will be .
, % of the Moon is Illuminated

Today's Extremes

State Highs State Lows

Community

WunderPhotos

Upload Photos

1,892,507 photos uploaded!

WunderBlog® & News

Nearby

Air Quality

  Air Quality AQ Index Pollutant
Not available.

Snow Depth

Station Depth Elevation

Earthquake Activity

City Distance Mag. Time & Date
Minimum magnitude displayed is 2.5.

Coastal Water Temperatures

Place Temperature

Stations

Nearby Weather Stations

Station Location Temp. Windchill Dew Point Humidity Wind Precip. Elev Updated Type
                   

Watches & Warnings

Wind Chill Advisory
Issued: 7:39 PM CST Feb. 12, 2016 – National Weather Service

... Wind Chill Advisory remains in effect until 8 am CST
Saturday...

* timing... tonight into Saturday morning

* winds... northwest at 10 to 20 mph decreasing to 5 to 10 mph by
daybreak Saturday.

* Temperatures/wind chill values... temperatures will fall well
below zero and wind chill values will drop into the 20 below to
30 below range.

* Impacts... those with interests outdoors should dress warmly
and cover exposed skin... as frostbite and hypothermia are
possible if the proper precautions are not taken.

Precautionary/preparedness actions...

A Wind Chill Advisory means that very cold air and strong winds
will combine to generate low wind chills. This will result in
frost bite and lead to hypothermia if precautions are not taken.
If you must venture outdoors... make sure you wear a hat and
gloves.